sensor_id;sensor_type;location;lat;lon;timestamp;P1;durP1;ratioP1;P2;durP2;ratioP2
15504;SDS011;7854;52.184;5.942;2023-04-30T00:03:36;15;;;10;;
15504;SDS011;7854;52.184;5.942;2023-04-30T00:04:31;10;;;9;;
15504;SDS011;7854;52.184;5.942;2023-04-30T00:06:45;11;;;9;;
15504;SDS011;7854;52.184;5.942;2023-04-30T00:08:59;8;;;8;;
15504;SDS011;7854;52.184;5.942;2023-04-30T00:11:13;15;;;11;;
15504;SDS011;7854;52.184;5.942;2023-04-30T00:13:27;10;;;9;;
15504;SDS011;7854;52.184;5.942;2023-04-30T00:15:41;9;;;9;;
15504;SDS011;7854;52.184;5.942;2023-04-30T00:17:56;10;;;9;;
15504;SDS011;7854;52.184;5.942;2023-04-30T00:20:11;9;;;8;;
15504;SDS011;7854;52.184;5.942;2023-04-30T00:22:25;14;;;12;;
15504;SDS011;7854;52.184;5.942;2023-04-30T00:24:39;10;;;9;;
15504;SDS011;7854;52.184;5.942;2023-04-30T00:26:54;9;;;8;;
15504;SDS011;7854;52.184;5.942;2023-04-30T00:29:08;9;;;9;;
15504;SDS011;7854;52.184;5.942;2023-04-30T00:31:23;8;;;8;;
15504;SDS011;7854;52.184;5.942;2023-04-30T00:33:37;10;;;9;;
15504;SDS011;7854;52.184;5.942;2023-04-30T00:35:52;9;;;8;;
15504;SDS011;7854;52.184;5.942;2023-04-30T00:38:06;10;;;9;;
15504;SDS011;7854;52.184;5.942;2023-04-30T00:40:21;10;;;9;;
15504;SDS011;7854;52.184;5.942;2023-04-30T00:42:35;15;;;10;;
15504;SDS011;7854;52.184;5.942;2023-04-30T00:44:49;10;;;9;;
15504;SDS011;7854;52.184;5.942;2023-04-30T00:47:04;9;;;9;;
15504;SDS011;7854;52.184;5.942;2023-04-30T00:49:18;13;;;9;;
15504;SDS011;7854;52.184;5.942;2023-04-30T00:51:33;14;;;11;;
15504;SDS011;7854;52.184;5.942;2023-04-30T00:53:47;10;;;9;;
15504;SDS011;7854;52.184;5.942;2023-04-30T00:56:01;11;;;9;;
15504;SDS011;7854;52.184;5.942;2023-04-30T00:58:16;9;;;8;;
15504;SDS011;7854;52.184;5.942;2023-04-30T01:00:30;9;;;8;;
15504;SDS011;7854;52.184;5.942;2023-04-30T01:02:44;10;;;9;;
15504;SDS011;7854;52.184;5.942;2023-04-30T01:04:58;18;;;9;;
15504;SDS011;7854;52.184;5.942;2023-04-30T01:09:27;10;;;9;;
15504;SDS011;7854;52.184;5.942;2023-04-30T01:11:47;10;;;9;;
15504;SDS011;7854;52.184;5.942;2023-04-30T01:13:58;13;;;10;;
15504;SDS011;7854;52.184;5.942;2023-04-30T01:16:12;8;;;7;;
15504;SDS011;7854;52.184;5.942;2023-04-30T01:18:24;10;;;9;;
15504;SDS011;7854;52.184;5.942;2023-04-30T01:20:41;12;;;10;;
15504;SDS011;7854;52.184;5.942;2023-04-30T01:22:54;12;;;11;;
15504;SDS011;7854;52.184;5.942;2023-04-30T01:25:13;11;;;10;;
15504;SDS011;7854;52.184;5.942;2023-04-30T01:27:23;13;;;11;;
15504;SDS011;7854;52.184;5.942;2023-04-30T01:29:36;13;;;12;;
15504;SDS011;7854;52.184;5.942;2023-04-30T01:31:51;13;;;10;;
15504;SDS011;7854;52.184;5.942;2023-04-30T01:34:05;10;;;9;;
15504;SDS011;7854;52.184;5.942;2023-04-30T01:36:23;9;;;8;;
15504;SDS011;7854;52.184;5.942;2023-04-30T01:38:39;9;;;9;;
15504;SDS011;7854;52.184;5.942;2023-04-30T01:40:51;11;;;10;;
15504;SDS011;7854;52.184;5.942;2023-04-30T01:43:04;11;;;10;;
15504;SDS011;7854;52.184;5.942;2023-04-30T01:45:21;12;;;11;;
15504;SDS011;7854;52.184;5.942;2023-04-30T01:47:33;10;;;8;;
15504;SDS011;7854;52.184;5.942;2023-04-30T01:49:49;9;;;9;;
15504;SDS011;7854;52.184;5.942;2023-04-30T01:52:02;10;;;10;;
15504;SDS011;7854;52.184;5.942;2023-04-30T01:54:16;11;;;10;;
15504;SDS011;7854;52.184;5.942;2023-04-30T01:56:30;10;;;9;;
15504;SDS011;7854;52.184;5.942;2023-04-30T01:58:44;10;;;9;;
15504;SDS011;7854;52.184;5.942;2023-04-30T02:00:58;8;;;8;;
15504;SDS011;7854;52.184;5.942;2023-04-30T02:03:13;9;;;9;;
15504;SDS011;7854;52.184;5.942;2023-04-30T02:05:27;9;;;8;;
15504;SDS011;7854;52.184;5.942;2023-04-30T02:07:41;9;;;8;;
15504;SDS011;7854;52.184;5.942;2023-04-30T02:09:55;10;;;9;;
15504;SDS011;7854;52.184;5.942;2023-04-30T02:12:09;9;;;9;;
15504;SDS011;7854;52.184;5.942;2023-04-30T02:14:23;8;;;8;;
15504;SDS011;7854;52.184;5.942;2023-04-30T02:16:38;10;;;9;;
15504;SDS011;7854;52.184;5.942;2023-04-30T02:18:52;11;;;10;;
15504;SDS011;7854;52.184;5.942;2023-04-30T02:21:07;9;;;8;;
15504;SDS011;7854;52.184;5.942;2023-04-30T02:23:21;10;;;9;;
15504;SDS011;7854;52.184;5.942;2023-04-30T02:25:36;26;;;8;;
15504;SDS011;7854;52.184;5.942;2023-04-30T02:27:50;11;;;8;;
15504;SDS011;7854;52.184;5.942;2023-04-30T02:30:05;8;;;8;;
15504;SDS011;7854;52.184;5.942;2023-04-30T02:34:33;9;;;8;;
15504;SDS011;7854;52.184;5.942;2023-04-30T02:36:48;12;;;11;;
15504;SDS011;7854;52.184;5.942;2023-04-30T02:39:02;10;;;9;;
15504;SDS011;7854;52.184;5.942;2023-04-30T02:41:17;11;;;10;;
15504;SDS011;7854;52.184;5.942;2023-04-30T02:43:31;13;;;9;;
15504;SDS011;7854;52.184;5.942;2023-04-30T02:45:46;10;;;9;;
15504;SDS011;7854;52.184;5.942;2023-04-30T02:48:00;10;;;9;;
15504;SDS011;7854;52.184;5.942;2023-04-30T02:50:15;11;;;10;;
15504;SDS011;7854;52.184;5.942;2023-04-30T02:52:29;12;;;9;;
15504;SDS011;7854;52.184;5.942;2023-04-30T02:54:43;10;;;9;;
15504;SDS011;7854;52.184;5.942;2023-04-30T02:56:57;9;;;9;;
15504;SDS011;7854;52.184;5.942;2023-04-30T02:59:11;11;;;10;;
15504;SDS011;7854;52.184;5.942;2023-04-30T03:01:26;12;;;10;;
15504;SDS011;7854;52.184;5.942;2023-04-30T03:03:40;9;;;8;;
15504;SDS011;7854;52.184;5.942;2023-04-30T03:05:53;10;;;9;;
15504;SDS011;7854;52.184;5.942;2023-04-30T03:08:08;10;;;9;;
15504;SDS011;7854;52.184;5.942;2023-04-30T03:10:22;9;;;8;;
15504;SDS011;7854;52.184;5.942;2023-04-30T03:12:37;10;;;9;;
15504;SDS011;7854;52.184;5.942;2023-04-30T03:14:51;13;;;12;;
15504;SDS011;7854;52.184;5.942;2023-04-30T03:17:06;9;;;9;;
15504;SDS011;7854;52.184;5.942;2023-04-30T03:19:20;9;;;9;;
15504;SDS011;7854;52.184;5.942;2023-04-30T03:21:35;9;;;9;;
15504;SDS011;7854;52.184;5.942;2023-04-30T03:23:49;11;;;10;;
15504;SDS011;7854;52.184;5.942;2023-04-30T03:26:04;10;;;9;;
15504;SDS011;7854;52.184;5.942;2023-04-30T03:28:18;12;;;10;;
15504;SDS011;7854;52.184;5.942;2023-04-30T03:30:33;10;;;9;;
15504;SDS011;7854;52.184;5.942;2023-04-30T03:32:47;9;;;8;;
15504;SDS011;7854;52.184;5.942;2023-04-30T03:35:02;9;;;8;;
15504;SDS011;7854;52.184;5.942;2023-04-30T03:37:16;10;;;9;;
15504;SDS011;7854;52.184;5.942;2023-04-30T03:39:30;8;;;8;;
15504;SDS011;7854;52.184;5.942;2023-04-30T03:41:44;11;;;9;;
15504;SDS011;7854;52.184;5.942;2023-04-30T03:43:59;10;;;9;;
15504;SDS011;7854;52.184;5.942;2023-04-30T03:46:13;10;;;9;;
15504;SDS011;7854;52.184;5.942;2023-04-30T03:48:28;15;;;9;;
15504;SDS011;7854;52.184;5.942;2023-04-30T03:50:42;10;;;9;;
15504;SDS011;7854;52.184;5.942;2023-04-30T03:52:56;10;;;8;;
15504;SDS011;7854;52.184;5.942;2023-04-30T03:55:10;11;;;10;;
15504;SDS011;7854;52.184;5.942;2023-04-30T03:57:25;18;;;8;;
15504;SDS011;7854;52.184;5.942;2023-04-30T03:59:38;12;;;11;;
15504;SDS011;7854;52.184;5.942;2023-04-30T04:01:53;9;;;8;;
15504;SDS011;7854;52.184;5.942;2023-04-30T04:04:07;9;;;9;;
15504;SDS011;7854;52.184;5.942;2023-04-30T04:06:21;11;;;10;;
15504;SDS011;7854;52.184;5.942;2023-04-30T04:08:36;8;;;8;;
15504;SDS011;7854;52.184;5.942;2023-04-30T04:10:50;9;;;8;;
15504;SDS011;7854;52.184;5.942;2023-04-30T04:13:05;13;;;8;;
15504;SDS011;7854;52.184;5.942;2023-04-30T04:15:19;12;;;10;;
15504;SDS011;7854;52.184;5.942;2023-04-30T04:17:34;9;;;9;;
15504;SDS011;7854;52.184;5.942;2023-04-30T04:19:48;11;;;10;;
15504;SDS011;7854;52.184;5.942;2023-04-30T04:22:03;11;;;9;;
15504;SDS011;7854;52.184;5.942;2023-04-30T04:24:17;10;;;9;;
15504;SDS011;7854;52.184;5.942;2023-04-30T04:26:31;13;;;9;;
15504;SDS011;7854;52.184;5.942;2023-04-30T04:28:46;14;;;9;;
15504;SDS011;7854;52.184;5.942;2023-04-30T04:31:00;12;;;11;;
15504;SDS011;7854;52.184;5.942;2023-04-30T04:33:15;9;;;9;;
15504;SDS011;7854;52.184;5.942;2023-04-30T04:35:30;10;;;8;;
15504;SDS011;7854;52.184;5.942;2023-04-30T04:37:44;20;;;9;;
15504;SDS011;7854;52.184;5.942;2023-04-30T04:39:58;10;;;9;;
15504;SDS011;7854;52.184;5.942;2023-04-30T04:42:13;9;;;9;;
15504;SDS011;7854;52.184;5.942;2023-04-30T04:44:27;9;;;9;;
15504;SDS011;7854;52.184;5.942;2023-04-30T04:46:41;11;;;10;;
15504;SDS011;7854;52.184;5.942;2023-04-30T04:48:55;12;;;11;;
15504;SDS011;7854;52.184;5.942;2023-04-30T04:51:10;12;;;11;;
15504;SDS011;7854;52.184;5.942;2023-04-30T04:53:24;11;;;10;;
15504;SDS011;7854;52.184;5.942;2023-04-30T04:55:38;10;;;10;;
15504;SDS011;7854;52.184;5.942;2023-04-30T04:57:52;10;;;9;;
15504;SDS011;7854;52.184;5.942;2023-04-30T05:00:07;10;;;10;;
15504;SDS011;7854;52.184;5.942;2023-04-30T05:02:21;10;;;9;;
15504;SDS011;7854;52.184;5.942;2023-04-30T05:04:35;9;;;8;;
15504;SDS011;7854;52.184;5.942;2023-04-30T05:06:50;15;;;9;;
15504;SDS011;7854;52.184;5.942;2023-04-30T05:09:04;10;;;10;;
15504;SDS011;7854;52.184;5.942;2023-04-30T05:11:19;9;;;9;;
15504;SDS011;7854;52.184;5.942;2023-04-30T05:13:33;11;;;9;;
15504;SDS011;7854;52.184;5.942;2023-04-30T05:15:49;9;;;8;;
15504;SDS011;7854;52.184;5.942;2023-04-30T05:18:02;9;;;8;;
15504;SDS011;7854;52.184;5.942;2023-04-30T05:20:16;9;;;8;;
15504;SDS011;7854;52.184;5.942;2023-04-30T05:22:31;7;;;6;;
15504;SDS011;7854;52.184;5.942;2023-04-30T05:24:46;6;;;6;;
15504;SDS011;7854;52.184;5.942;2023-04-30T05:27:00;10;;;7;;
15504;SDS011;7854;52.184;5.942;2023-04-30T05:29:14;6;;;6;;
15504;SDS011;7854;52.184;5.942;2023-04-30T05:31:28;13;;;8;;
15504;SDS011;7854;52.184;5.942;2023-04-30T05:33:43;11;;;8;;
15504;SDS011;7854;52.184;5.942;2023-04-30T05:35:58;8;;;8;;
15504;SDS011;7854;52.184;5.942;2023-04-30T05:38:12;9;;;8;;
15504;SDS011;7854;52.184;5.942;2023-04-30T05:40:27;8;;;8;;
15504;SDS011;7854;52.184;5.942;2023-04-30T05:42:40;16;;;7;;
15504;SDS011;7854;52.184;5.942;2023-04-30T05:44:55;15;;;8;;
15504;SDS011;7854;52.184;5.942;2023-04-30T05:47:09;21;;;7;;
15504;SDS011;7854;52.184;5.942;2023-04-30T05:49:22;7;;;6;;
15504;SDS011;7854;52.184;5.942;2023-04-30T05:51:37;8;;;7;;
15504;SDS011;7854;52.184;5.942;2023-04-30T05:53:51;7;;;6;;
15504;SDS011;7854;52.184;5.942;2023-04-30T05:56:06;7;;;6;;
15504;SDS011;7854;52.184;5.942;2023-04-30T05:58:20;8;;;6;;
15504;SDS011;7854;52.184;5.942;2023-04-30T06:00:34;6;;;6;;
15504;SDS011;7854;52.184;5.942;2023-04-30T06:02:49;6;;;5;;
15504;SDS011;7854;52.184;5.942;2023-04-30T06:05:04;7;;;6;;
15504;SDS011;7854;52.184;5.942;2023-04-30T06:07:18;6;;;5;;
15504;SDS011;7854;52.184;5.942;2023-04-30T06:09:32;5;;;4;;
15504;SDS011;7854;52.184;5.942;2023-04-30T06:11:47;6;;;5;;
15504;SDS011;7854;52.184;5.942;2023-04-30T06:14:02;5;;;4;;
15504;SDS011;7854;52.184;5.942;2023-04-30T06:16:16;7;;;4;;
15504;SDS011;7854;52.184;5.942;2023-04-30T06:18:30;3;;;3;;
15504;SDS011;7854;52.184;5.942;2023-04-30T06:20:45;4;;;3;;
15504;SDS011;7854;52.184;5.942;2023-04-30T06:22:59;4;;;4;;
15504;SDS011;7854;52.184;5.942;2023-04-30T06:25:13;4;;;3;;
15504;SDS011;7854;52.184;5.942;2023-04-30T06:27:28;5;;;4;;
15504;SDS011;7854;52.184;5.942;2023-04-30T06:29:43;5;;;4;;
15504;SDS011;7854;52.184;5.942;2023-04-30T06:31:57;4;;;4;;
15504;SDS011;7854;52.184;5.942;2023-04-30T06:34:11;11;;;5;;
15504;SDS011;7854;52.184;5.942;2023-04-30T06:36:25;4;;;4;;
15504;SDS011;7854;52.184;5.942;2023-04-30T06:38:40;4;;;4;;
15504;SDS011;7854;52.184;5.942;2023-04-30T06:40:54;4;;;3;;
15504;SDS011;7854;52.184;5.942;2023-04-30T06:43:09;4;;;3;;
15504;SDS011;7854;52.184;5.942;2023-04-30T06:45:24;5;;;5;;
15504;SDS011;7854;52.184;5.942;2023-04-30T06:47:38;3;;;3;;
15504;SDS011;7854;52.184;5.942;2023-04-30T06:52:07;3;;;3;;
15504;SDS011;7854;52.184;5.942;2023-04-30T06:54:21;3;;;3;;
15504;SDS011;7854;52.184;5.942;2023-04-30T06:56:34;3;;;3;;
15504;SDS011;7854;52.184;5.942;2023-04-30T06:58:49;4;;;4;;
15504;SDS011;7854;52.184;5.942;2023-04-30T07:01:03;3;;;3;;
15504;SDS011;7854;52.184;5.942;2023-04-30T07:03:18;4;;;3;;
15504;SDS011;7854;52.184;5.942;2023-04-30T07:05:33;13;;;3;;
15504;SDS011;7854;52.184;5.942;2023-04-30T07:07:46;5;;;3;;
15504;SDS011;7854;52.184;5.942;2023-04-30T07:10:00;4;;;3;;
15504;SDS011;7854;52.184;5.942;2023-04-30T07:12:15;4;;;3;;
15504;SDS011;7854;52.184;5.942;2023-04-30T07:16:44;3;;;3;;
15504;SDS011;7854;52.184;5.942;2023-04-30T07:18:58;3;;;3;;
15504;SDS011;7854;52.184;5.942;2023-04-30T07:21:13;3;;;3;;
15504;SDS011;7854;52.184;5.942;2023-04-30T07:23:27;5;;;3;;
15504;SDS011;7854;52.184;5.942;2023-04-30T07:25:41;3;;;3;;
15504;SDS011;7854;52.184;5.942;2023-04-30T07:27:56;3;;;2;;
15504;SDS011;7854;52.184;5.942;2023-04-30T07:30:09;5;;;3;;
15504;SDS011;7854;52.184;5.942;2023-04-30T07:32:24;2;;;2;;
15504;SDS011;7854;52.184;5.942;2023-04-30T07:34:38;8;;;3;;
15504;SDS011;7854;52.184;5.942;2023-04-30T07:36:53;3;;;3;;
15504;SDS011;7854;52.184;5.942;2023-04-30T07:39:07;4;;;3;;
15504;SDS011;7854;52.184;5.942;2023-04-30T07:41:23;3;;;2;;
15504;SDS011;7854;52.184;5.942;2023-04-30T07:43:36;4;;;2;;
15504;SDS011;7854;52.184;5.942;2023-04-30T07:45:51;4;;;3;;
15504;SDS011;7854;52.184;5.942;2023-04-30T07:48:05;7;;;3;;
15504;SDS011;7854;52.184;5.942;2023-04-30T07:50:20;2;;;1;;
15504;SDS011;7854;52.184;5.942;2023-04-30T07:52:34;3;;;2;;
15504;SDS011;7854;52.184;5.942;2023-04-30T07:54:48;3;;;2;;
15504;SDS011;7854;52.184;5.942;2023-04-30T07:57:02;2;;;2;;
15504;SDS011;7854;52.184;5.942;2023-04-30T07:59:16;2;;;2;;
15504;SDS011;7854;52.184;5.942;2023-04-30T08:03:45;3;;;2;;
15504;SDS011;7854;52.184;5.942;2023-04-30T08:06:00;7;;;3;;
15504;SDS011;7854;52.184;5.942;2023-04-30T08:10:29;2;;;1;;
15504;SDS011;7854;52.184;5.942;2023-04-30T08:12:43;2;;;2;;
15504;SDS011;7854;52.184;5.942;2023-04-30T08:14:58;2;;;2;;
15504;SDS011;7854;52.184;5.942;2023-04-30T08:17:12;2;;;2;;
15504;SDS011;7854;52.184;5.942;2023-04-30T08:19:26;2;;;2;;
15504;SDS011;7854;52.184;5.942;2023-04-30T08:21:41;2;;;2;;
15504;SDS011;7854;52.184;5.942;2023-04-30T08:23:55;2;;;2;;
15504;SDS011;7854;52.184;5.942;2023-04-30T08:26:09;5;;;2;;
15504;SDS011;7854;52.184;5.942;2023-04-30T08:28:29;3;;;2;;
15504;SDS011;7854;52.184;5.942;2023-04-30T08:30:50;5;;;1;;
15504;SDS011;7854;52.184;5.942;2023-04-30T08:33:11;2;;;1;;
15504;SDS011;7854;52.184;5.942;2023-04-30T08:35:37;2;;;2;;
15504;SDS011;7854;52.184;5.942;2023-04-30T08:37:51;1;;;1;;
15504;SDS011;7854;52.184;5.942;2023-04-30T08:40:12;3;;;1;;
15504;SDS011;7854;52.184;5.942;2023-04-30T08:42:28;1;;;1;;
15504;SDS011;7854;52.184;5.942;2023-04-30T08:44:40;2;;;1;;
15504;SDS011;7854;52.184;5.942;2023-04-30T08:46:55;4;;;2;;
15504;SDS011;7854;52.184;5.942;2023-04-30T08:49:09;1;;;1;;
15504;SDS011;7854;52.184;5.942;2023-04-30T08:51:24;1;;;1;;
15504;SDS011;7854;52.184;5.942;2023-04-30T08:53:38;2;;;1;;
15504;SDS011;7854;52.184;5.942;2023-04-30T08:55:52;5;;;1;;
15504;SDS011;7854;52.184;5.942;2023-04-30T08:58:07;2;;;1;;
15504;SDS011;7854;52.184;5.942;2023-04-30T09:00:21;5;;;3;;
15504;SDS011;7854;52.184;5.942;2023-04-30T09:02:38;7;;;2;;
15504;SDS011;7854;52.184;5.942;2023-04-30T09:04:50;3;;;1;;
15504;SDS011;7854;52.184;5.942;2023-04-30T09:07:04;2;;;2;;
15504;SDS011;7854;52.184;5.942;2023-04-30T09:09:19;3;;;1;;
15504;SDS011;7854;52.184;5.942;2023-04-30T09:11:33;2;;;1;;
15504;SDS011;7854;52.184;5.942;2023-04-30T09:13:48;2;;;2;;
15504;SDS011;7854;52.184;5.942;2023-04-30T09:16:02;2;;;2;;
15504;SDS011;7854;52.184;5.942;2023-04-30T09:18:17;3;;;1;;
15504;SDS011;7854;52.184;5.942;2023-04-30T09:20:31;1;;;1;;
15504;SDS011;7854;52.184;5.942;2023-04-30T09:22:46;1;;;1;;
15504;SDS011;7854;52.184;5.942;2023-04-30T09:25:00;5;;;2;;
15504;SDS011;7854;52.184;5.942;2023-04-30T09:27:15;2;;;1;;
15504;SDS011;7854;52.184;5.942;2023-04-30T09:29:35;1;;;1;;
15504;SDS011;7854;52.184;5.942;2023-04-30T09:31:44;1;;;1;;
15504;SDS011;7854;52.184;5.942;2023-04-30T09:33:57;1;;;1;;
15504;SDS011;7854;52.184;5.942;2023-04-30T09:36:12;1;;;0;;
15504;SDS011;7854;52.184;5.942;2023-04-30T09:38:27;7;;;1;;
15504;SDS011;7854;52.184;5.942;2023-04-30T09:40:41;1;;;1;;
15504;SDS011;7854;52.184;5.942;2023-04-30T09:45:09;2;;;2;;
15504;SDS011;7854;52.184;5.942;2023-04-30T09:47:23;2;;;2;;
15504;SDS011;7854;52.184;5.942;2023-04-30T09:49:39;1;;;1;;
15504;SDS011;7854;52.184;5.942;2023-04-30T09:51:52;1;;;1;;
15504;SDS011;7854;52.184;5.942;2023-04-30T09:54:06;11;;;2;;
15504;SDS011;7854;52.184;5.942;2023-04-30T09:56:21;1;;;1;;
15504;SDS011;7854;52.184;5.942;2023-04-30T09:58:35;1;;;1;;
15504;SDS011;7854;52.184;5.942;2023-04-30T10:00:49;1;;;1;;
15504;SDS011;7854;52.184;5.942;2023-04-30T10:03:05;4;;;2;;
15504;SDS011;7854;52.184;5.942;2023-04-30T10:05:18;1;;;1;;
15504;SDS011;7854;52.184;5.942;2023-04-30T10:07:33;2;;;1;;
15504;SDS011;7854;52.184;5.942;2023-04-30T10:09:48;1;;;1;;
15504;SDS011;7854;52.184;5.942;2023-04-30T10:12:02;6;;;1;;
15504;SDS011;7854;52.184;5.942;2023-04-30T10:14:16;16;;;2;;
15504;SDS011;7854;52.184;5.942;2023-04-30T10:16:33;2;;;1;;
15504;SDS011;7854;52.184;5.942;2023-04-30T10:18:45;3;;;1;;
15504;SDS011;7854;52.184;5.942;2023-04-30T10:21:00;2;;;1;;
15504;SDS011;7854;52.184;5.942;2023-04-30T10:23:13;1;;;1;;
15504;SDS011;7854;52.184;5.942;2023-04-30T10:25:28;2;;;1;;
15504;SDS011;7854;52.184;5.942;2023-04-30T10:27:43;3;;;1;;
15504;SDS011;7854;52.184;5.942;2023-04-30T10:29:57;2;;;1;;
15504;SDS011;7854;52.184;5.942;2023-04-30T10:32:11;2;;;1;;
15504;SDS011;7854;52.184;5.942;2023-04-30T10:34:36;7;;;1;;
15504;SDS011;7854;52.184;5.942;2023-04-30T10:36:41;4;;;2;;
15504;SDS011;7854;52.184;5.942;2023-04-30T10:38:55;2;;;2;;
15504;SDS011;7854;52.184;5.942;2023-04-30T10:41:08;2;;;1;;
15504;SDS011;7854;52.184;5.942;2023-04-30T10:43:23;2;;;1;;
15504;SDS011;7854;52.184;5.942;2023-04-30T10:45:37;2;;;1;;
15504;SDS011;7854;52.184;5.942;2023-04-30T10:47:53;2;;;2;;
15504;SDS011;7854;52.184;5.942;2023-04-30T10:50:07;7;;;2;;
15504;SDS011;7854;52.184;5.942;2023-04-30T10:52:25;4;;;2;;
15504;SDS011;7854;52.184;5.942;2023-04-30T10:54:35;2;;;2;;
15504;SDS011;7854;52.184;5.942;2023-04-30T10:56:50;2;;;2;;
15504;SDS011;7854;52.184;5.942;2023-04-30T10:59:04;3;;;2;;
15504;SDS011;7854;52.184;5.942;2023-04-30T11:01:18;3;;;2;;
15504;SDS011;7854;52.184;5.942;2023-04-30T11:03:33;3;;;2;;
15504;SDS011;7854;52.184;5.942;2023-04-30T11:05:47;3;;;2;;
15504;SDS011;7854;52.184;5.942;2023-04-30T11:08:02;2;;;1;;
15504;SDS011;7854;52.184;5.942;2023-04-30T11:10:19;3;;;1;;
15504;SDS011;7854;52.184;5.942;2023-04-30T11:12:29;8;;;2;;
15504;SDS011;7854;52.184;5.942;2023-04-30T11:14:44;2;;;1;;
15504;SDS011;7854;52.184;5.942;2023-04-30T11:16:59;1;;;1;;
15504;SDS011;7854;52.184;5.942;2023-04-30T11:19:13;2;;;1;;
15504;SDS011;7854;52.184;5.942;2023-04-30T11:21:27;4;;;2;;
15504;SDS011;7854;52.184;5.942;2023-04-30T11:23:42;3;;;2;;
15504;SDS011;7854;52.184;5.942;2023-04-30T11:25:56;3;;;2;;
15504;SDS011;7854;52.184;5.942;2023-04-30T11:28:12;3;;;2;;
15504;SDS011;7854;52.184;5.942;2023-04-30T11:30:25;1;;;1;;
15504;SDS011;7854;52.184;5.942;2023-04-30T11:32:41;1;;;1;;
15504;SDS011;7854;52.184;5.942;2023-04-30T11:34:54;1;;;1;;
15504;SDS011;7854;52.184;5.942;2023-04-30T11:37:08;2;;;2;;
15504;SDS011;7854;52.184;5.942;2023-04-30T11:39:23;1;;;1;;
15504;SDS011;7854;52.184;5.942;2023-04-30T11:41:39;1;;;1;;
15504;SDS011;7854;52.184;5.942;2023-04-30T11:43:52;4;;;1;;
15504;SDS011;7854;52.184;5.942;2023-04-30T11:46:06;1;;;1;;
15504;SDS011;7854;52.184;5.942;2023-04-30T11:48:21;1;;;1;;
15504;SDS011;7854;52.184;5.942;2023-04-30T11:50:41;3;;;1;;
15504;SDS011;7854;52.184;5.942;2023-04-30T11:52:50;1;;;1;;
15504;SDS011;7854;52.184;5.942;2023-04-30T11:55:04;1;;;1;;
15504;SDS011;7854;52.184;5.942;2023-04-30T11:57:18;1;;;1;;
15504;SDS011;7854;52.184;5.942;2023-04-30T11:59:38;1;;;1;;
15504;SDS011;7854;52.184;5.942;2023-04-30T12:01:47;1;;;1;;
15504;SDS011;7854;52.184;5.942;2023-04-30T12:04:02;1;;;1;;
15504;SDS011;7854;52.184;5.942;2023-04-30T12:06:20;1;;;1;;
15504;SDS011;7854;52.184;5.942;2023-04-30T12:08:31;1;;;1;;
15504;SDS011;7854;52.184;5.942;2023-04-30T12:10:45;2;;;1;;
15504;SDS011;7854;52.184;5.942;2023-04-30T12:13:00;2;;;1;;
15504;SDS011;7854;52.184;5.942;2023-04-30T12:15:15;1;;;1;;
15504;SDS011;7854;52.184;5.942;2023-04-30T12:17:30;1;;;1;;
15504;SDS011;7854;52.184;5.942;2023-04-30T12:19:43;1;;;1;;
15504;SDS011;7854;52.184;5.942;2023-04-30T12:21:57;1;;;1;;
15504;SDS011;7854;52.184;5.942;2023-04-30T12:24:12;2;;;1;;
15504;SDS011;7854;52.184;5.942;2023-04-30T12:26:32;2;;;1;;
15504;SDS011;7854;52.184;5.942;2023-04-30T12:28:40;1;;;1;;
15504;SDS011;7854;52.184;5.942;2023-04-30T12:30:55;1;;;0;;
15504;SDS011;7854;52.184;5.942;2023-04-30T12:33:10;1;;;1;;
15504;SDS011;7854;52.184;5.942;2023-04-30T12:35:26;2;;;1;;
15504;SDS011;7854;52.184;5.942;2023-04-30T12:37:40;1;;;1;;
15504;SDS011;7854;52.184;5.942;2023-04-30T12:39:54;1;;;1;;
15504;SDS011;7854;52.184;5.942;2023-04-30T12:42:07;2;;;2;;
15504;SDS011;7854;52.184;5.942;2023-04-30T12:44:22;1;;;1;;
15504;SDS011;7854;52.184;5.942;2023-04-30T12:46:36;2;;;1;;
15504;SDS011;7854;52.184;5.942;2023-04-30T12:48:51;1;;;1;;
15504;SDS011;7854;52.184;5.942;2023-04-30T12:51:05;1;;;1;;
15504;SDS011;7854;52.184;5.942;2023-04-30T12:53:20;1;;;1;;
15504;SDS011;7854;52.184;5.942;2023-04-30T12:55:34;1;;;1;;
15504;SDS011;7854;52.184;5.942;2023-04-30T13:00:06;1;;;1;;
15504;SDS011;7854;52.184;5.942;2023-04-30T13:02:17;1;;;1;;
15504;SDS011;7854;52.184;5.942;2023-04-30T13:04:32;1;;;1;;
15504;SDS011;7854;52.184;5.942;2023-04-30T13:06:46;1;;;1;;
15504;SDS011;7854;52.184;5.942;2023-04-30T13:09:00;1;;;1;;
15504;SDS011;7854;52.184;5.942;2023-04-30T13:11:15;1;;;1;;
15504;SDS011;7854;52.184;5.942;2023-04-30T13:13:29;2;;;2;;
15504;SDS011;7854;52.184;5.942;2023-04-30T13:15:44;1;;;1;;
15504;SDS011;7854;52.184;5.942;2023-04-30T13:17:58;2;;;1;;
15504;SDS011;7854;52.184;5.942;2023-04-30T13:20:13;1;;;1;;
15504;SDS011;7854;52.184;5.942;2023-04-30T13:22:27;1;;;1;;
15504;SDS011;7854;52.184;5.942;2023-04-30T13:24:41;17;;;1;;
15504;SDS011;7854;52.184;5.942;2023-04-30T13:26:55;1;;;0;;
15504;SDS011;7854;52.184;5.942;2023-04-30T13:29:10;3;;;0;;
15504;SDS011;7854;52.184;5.942;2023-04-30T13:31:24;2;;;1;;
15504;SDS011;7854;52.184;5.942;2023-04-30T13:33:38;2;;;1;;
15504;SDS011;7854;52.184;5.942;2023-04-30T13:35:53;0;;;0;;
15504;SDS011;7854;52.184;5.942;2023-04-30T13:38:07;1;;;1;;
15504;SDS011;7854;52.184;5.942;2023-04-30T13:40:22;1;;;1;;
15504;SDS011;7854;52.184;5.942;2023-04-30T13:42:37;1;;;1;;
15504;SDS011;7854;52.184;5.942;2023-04-30T13:44:50;1;;;1;;
15504;SDS011;7854;52.184;5.942;2023-04-30T13:47:04;1;;;1;;
15504;SDS011;7854;52.184;5.942;2023-04-30T13:49:19;3;;;0;;
15504;SDS011;7854;52.184;5.942;2023-04-30T13:51:33;1;;;0;;
15504;SDS011;7854;52.184;5.942;2023-04-30T13:53:48;0;;;0;;
15504;SDS011;7854;52.184;5.942;2023-04-30T13:56:02;1;;;0;;
15504;SDS011;7854;52.184;5.942;2023-04-30T13:58:16;1;;;0;;
15504;SDS011;7854;52.184;5.942;2023-04-30T14:00:31;2;;;1;;
15504;SDS011;7854;52.184;5.942;2023-04-30T14:02:46;1;;;1;;
15504;SDS011;7854;52.184;5.942;2023-04-30T14:05:00;1;;;1;;
15504;SDS011;7854;52.184;5.942;2023-04-30T14:07:14;1;;;1;;
15504;SDS011;7854;52.184;5.942;2023-04-30T14:09:29;1;;;0;;
15504;SDS011;7854;52.184;5.942;2023-04-30T14:11:43;0;;;0;;
15504;SDS011;7854;52.184;5.942;2023-04-30T14:13:58;1;;;1;;
15504;SDS011;7854;52.184;5.942;2023-04-30T14:16:12;0;;;0;;
15504;SDS011;7854;52.184;5.942;2023-04-30T14:18:27;3;;;0;;
15504;SDS011;7854;52.184;5.942;2023-04-30T14:20:41;0;;;0;;
15504;SDS011;7854;52.184;5.942;2023-04-30T14:25:10;0;;;0;;
15504;SDS011;7854;52.184;5.942;2023-04-30T14:27:25;0;;;0;;
15504;SDS011;7854;52.184;5.942;2023-04-30T14:29:39;0;;;0;;
15504;SDS011;7854;52.184;5.942;2023-04-30T14:31:53;0;;;0;;
15504;SDS011;7854;52.184;5.942;2023-04-30T14:34:08;0;;;0;;
15504;SDS011;7854;52.184;5.942;2023-04-30T14:36:22;0;;;0;;
15504;SDS011;7854;52.184;5.942;2023-04-30T14:38:37;2;;;0;;
15504;SDS011;7854;52.184;5.942;2023-04-30T14:40:51;1;;;0;;
15504;SDS011;7854;52.184;5.942;2023-04-30T14:43:06;3;;;0;;
15504;SDS011;7854;52.184;5.942;2023-04-30T14:45:20;1;;;0;;
15504;SDS011;7854;52.184;5.942;2023-04-30T14:47:35;1;;;0;;
15504;SDS011;7854;52.184;5.942;2023-04-30T14:49:49;1;;;0;;
15504;SDS011;7854;52.184;5.942;2023-04-30T14:52:03;0;;;0;;
15504;SDS011;7854;52.184;5.942;2023-04-30T14:54:18;0;;;0;;
15504;SDS011;7854;52.184;5.942;2023-04-30T14:56:32;0;;;0;;
15504;SDS011;7854;52.184;5.942;2023-04-30T15:01:01;1;;;0;;
15504;SDS011;7854;52.184;5.942;2023-04-30T15:03:14;2;;;0;;
15504;SDS011;7854;52.184;5.942;2023-04-30T15:05:29;0;;;0;;
15504;SDS011;7854;52.184;5.942;2023-04-30T15:07:42;2;;;0;;
15504;SDS011;7854;52.184;5.942;2023-04-30T15:09:57;0;;;0;;
15504;SDS011;7854;52.184;5.942;2023-04-30T15:12:11;0;;;0;;
15504;SDS011;7854;52.184;5.942;2023-04-30T15:14:25;0;;;0;;
15504;SDS011;7854;52.184;5.942;2023-04-30T15:16:41;0;;;0;;
15504;SDS011;7854;52.184;5.942;2023-04-30T15:18:54;0;;;0;;
15504;SDS011;7854;52.184;5.942;2023-04-30T15:21:08;0;;;0;;
15504;SDS011;7854;52.184;5.942;2023-04-30T15:23:23;0;;;0;;